Time;durP1;ratioP1;P1;durP2;ratioP2;P2;SDS_P1;SDS_P2;PMS_P1;PMS_P2;Temp;Humidity;BMP_temperature;BMP_pressure;BME280_temperature;BME280_humidity;BME280_pressure;Samples;Min_cycle;Max_cycle;Signal;HPM_P1;HPM_P2
2024/01/30 00:00:04;;;;;;;24.90;15.23;;;;;;;4.25;100.00;102553.19;5023116;28;20040;-75
2024/01/30 00:02:50;;;;;;;31.70;16.27;;;;;;;4.24;100.00;102541.81;5033178;28;20036;-75
2024/01/30 00:05:35;;;;;;;29.00;15.88;;;;;;;4.24;100.00;102533.94;5046899;28;21896;-75
2024/01/30 00:08:21;;;;;;;27.63;14.95;;;;;;;4.20;100.00;102533.03;5030959;28;20119;-75
2024/01/30 00:11:07;;;;;;;26.52;14.40;;;;;;;4.16;100.00;102531.28;5047071;28;20051;-75
2024/01/30 00:13:54;;;;;;;25.77;14.57;;;;;;;4.15;100.00;102528.63;5046689;28;20043;-75
2024/01/30 00:16:40;;;;;;;27.25;14.95;;;;;;;4.16;100.00;102533.91;5045939;28;20072;-75
2024/01/30 00:19:26;;;;;;;27.98;15.32;;;;;;;4.13;100.00;102528.59;5047278;28;20036;-75
2024/01/30 00:22:11;;;;;;;27.55;14.93;;;;;;;4.14;100.00;102525.13;5034844;28;20132;-75
2024/01/30 00:24:59;;;;;;;29.33;15.35;;;;;;;4.13;100.00;102522.50;5046178;28;20039;-75
2024/01/30 00:27:46;;;;;;;27.10;15.45;;;;;;;4.13;100.00;102523.38;5046846;28;20476;-75
2024/01/30 00:30:31;;;;;;;29.80;15.68;;;;;;;4.12;100.00;102529.47;5049141;28;20056;-75
2024/01/30 00:33:17;;;;;;;30.02;15.70;;;;;;;4.14;100.00;102527.75;5045456;28;20052;-75
2024/01/30 00:36:03;;;;;;;27.58;15.60;;;;;;;4.15;100.00;102520.75;5046566;28;20041;-75
2024/01/30 00:38:49;;;;;;;30.20;15.82;;;;;;;4.16;100.00;102528.66;5046986;28;20132;-75
2024/01/30 00:41:35;;;;;;;30.63;15.65;;;;;;;4.18;100.00;102523.41;5049788;28;20039;-75
2024/01/30 00:44:20;;;;;;;32.85;16.27;;;;;;;4.19;100.00;102526.03;5031443;28;20119;-75
2024/01/30 00:47:06;;;;;;;28.90;15.63;;;;;;;4.20;100.00;102527.78;5045969;28;20064;-75
2024/01/30 00:49:52;;;;;;;30.45;16.45;;;;;;;4.22;100.00;102525.19;5046453;28;20044;-75
2024/01/30 00:52:39;;;;;;;27.95;14.95;;;;;;;4.23;100.00;102520.84;5045101;28;20620;-75
2024/01/30 00:55:24;;;;;;;27.17;14.43;;;;;;;4.25;100.00;102526.97;5046112;28;20052;-75
2024/01/30 00:58:10;;;;;;;28.73;15.95;;;;;;;4.25;100.00;102521.72;5046352;28;20139;-75
2024/01/30 01:00:56;;;;;;;28.85;16.20;;;;;;;4.25;100.00;102513.84;5033511;28;20028;-75
2024/01/30 01:03:43;;;;;;;28.48;15.45;;;;;;;4.25;100.00;102525.19;5044698;28;20506;-75
2024/01/30 01:06:29;;;;;;;29.15;15.63;;;;;;;4.26;100.00;102520.84;5046876;28;20063;-75
2024/01/30 01:09:15;;;;;;;27.67;16.27;;;;;;;4.27;100.00;102530.47;5030573;28;20047;-75
2024/01/30 01:12:01;;;;;;;29.35;16.60;;;;;;;4.27;100.00;102525.22;5045299;28;20125;-75
2024/01/30 01:14:47;;;;;;;28.40;15.95;;;;;;;4.28;100.00;102524.34;5029088;28;21106;-75
2024/01/30 01:17:33;;;;;;;27.98;15.63;;;;;;;4.30;100.00;102520.03;5034133;28;20125;-75
2024/01/30 01:20:19;;;;;;;24.98;15.23;;;;;;;4.29;100.00;102516.50;5046262;28;20075;-75
2024/01/30 01:23:05;;;;;;;29.52;16.27;;;;;;;4.31;100.00;102508.66;5036288;28;20037;-75
2024/01/30 01:25:51;;;;;;;28.25;16.02;;;;;;;4.30;100.00;102499.91;5014580;28;20067;-75
2024/01/30 01:28:36;;;;;;;30.77;16.00;;;;;;;4.31;100.00;102500.78;5032682;28;20040;-75
2024/01/30 01:31:24;;;;;;;28.92;15.75;;;;;;;4.31;100.00;102496.41;5047400;28;20041;-75
2024/01/30 01:34:13;;;;;;;29.38;16.15;;;;;;;4.32;100.00;102495.53;5047947;28;20052;-75
2024/01/30 01:36:59;;;;;;;25.70;14.95;;;;;;;4.33;100.00;102494.69;5046016;28;20493;-76
2024/01/30 01:39:45;;;;;;;27.67;15.93;;;;;;;4.33;100.00;102491.19;5046815;28;20035;-75
2024/01/30 01:42:31;;;;;;;28.88;15.52;;;;;;;4.32;100.00;102492.91;5046737;28;20040;-75
2024/01/30 01:45:17;;;;;;;29.00;16.05;;;;;;;4.31;100.00;102496.41;5045341;28;21637;-75
2024/01/30 01:48:03;;;;;;;28.55;14.88;;;;;;;4.30;100.00;102497.28;5029902;28;20395;-75
2024/01/30 01:50:49;;;;;;;29.55;15.27;;;;;;;4.32;100.00;102494.69;5032844;28;20125;-75
2024/01/30 01:53:35;;;;;;;29.30;15.50;;;;;;;4.32;100.00;102498.16;5049186;28;20610;-75
2024/01/30 01:56:22;;;;;;;31.10;16.33;;;;;;;4.33;100.00;102496.44;5032338;28;20063;-76
2024/01/30 01:59:08;;;;;;;28.92;15.43;;;;;;;4.32;100.00;102498.16;5032676;28;20715;-75
2024/01/30 02:01:55;;;;;;;28.27;14.93;;;;;;;4.34;100.00;102495.56;5035546;28;20491;-75
2024/01/30 02:04:41;;;;;;;28.70;15.70;;;;;;;4.36;100.00;102493.81;5021993;28;20041;-75
2024/01/30 02:07:27;;;;;;;27.60;15.57;;;;;;;4.38;100.00;102486.84;5030630;28;20427;-75
2024/01/30 02:10:13;;;;;;;30.92;16.23;;;;;;;4.41;100.00;102471.13;5032983;28;20060;-75
2024/01/30 02:12:59;;;;;;;27.52;15.30;;;;;;;4.44;100.00;102465.91;5022048;28;20051;-75
2024/01/30 02:15:49;;;;;;;30.30;15.70;;;;;;;4.48;100.00;102470.28;5045326;28;20098;-75
2024/01/30 02:18:35;;;;;;;28.33;15.18;;;;;;;4.51;100.00;102466.81;5046467;28;20139;-75
2024/01/30 02:21:21;;;;;;;26.17;14.75;;;;;;;4.53;100.00;102465.06;5047520;28;20044;-75
2024/01/30 02:24:06;;;;;;;26.77;15.40;;;;;;;4.56;100.00;102457.25;5047577;28;20037;-75
2024/01/30 02:26:52;;;;;;;28.05;14.80;;;;;;;4.59;100.00;102459.00;5045239;28;20029;-75
2024/01/30 02:29:38;;;;;;;27.92;15.27;;;;;;;4.59;100.00;102459.00;5045234;28;20040;-75
2024/01/30 02:32:24;;;;;;;26.95;14.45;;;;;;;4.60;100.00;102456.41;5046591;28;20044;-76
2024/01/30 02:35:09;;;;;;;30.10;14.80;;;;;;;4.62;100.00;102459.00;5043965;28;20032;-75
2024/01/30 02:37:55;;;;;;;27.98;15.93;;;;;;;4.63;100.00;102460.75;5028963;28;20049;-75
2024/01/30 02:40:41;;;;;;;26.40;15.27;;;;;;;4.64;100.00;102452.03;5046485;28;21856;-76
2024/01/30 02:43:27;;;;;;;26.27;15.23;;;;;;;4.64;100.00;102436.31;5042897;28;20484;-74
2024/01/30 02:46:13;;;;;;;28.33;14.60;;;;;;;4.64;100.00;102433.69;5033549;28;20575;-76
2024/01/30 02:48:59;;;;;;;26.80;14.73;;;;;;;4.64;100.00;102436.31;5046085;28;20049;-76
2024/01/30 02:51:44;;;;;;;27.42;14.73;;;;;;;4.62;100.00;102424.91;5045118;28;20135;-75
2024/01/30 02:54:30;;;;;;;25.20;13.82;;;;;;;4.61;100.00;102438.88;5031918;28;20051;-75
2024/01/30 02:57:16;;;;;;;27.23;14.95;;;;;;;4.60;100.00;102424.03;5044476;28;20399;-74
2024/01/30 03:00:03;;;;;;;26.15;14.32;;;;;;;4.58;100.00;102413.50;5042706;28;20036;-74
2024/01/30 03:02:49;;;;;;;25.58;14.43;;;;;;;4.56;100.00;102398.63;5033611;28;20036;-74
2024/01/30 03:05:35;;;;;;;26.95;14.07;;;;;;;4.55;100.00;102403.03;5036416;28;20037;-74
2024/01/30 03:08:21;;;;;;;27.77;15.60;;;;;;;4.55;100.00;102400.41;5046899;28;20114;-74
2024/01/30 03:11:07;;;;;;;25.13;14.70;;;;;;;4.55;100.00;102397.78;5028822;28;20043;-74
2024/01/30 03:13:52;;;;;;;31.45;14.88;;;;;;;4.55;100.00;102410.00;5043274;28;20121;-76
2024/01/30 03:16:38;;;;;;;26.05;14.50;;;;;;;4.53;100.00;102414.38;5044551;28;20045;-74
2024/01/30 03:19:24;;;;;;;28.00;14.23;;;;;;;4.52;100.00;102416.09;5044467;28;20037;-75
2024/01/30 03:22:10;;;;;;;25.63;14.27;;;;;;;4.54;100.00;102429.25;5032084;28;20032;-74
2024/01/30 03:24:56;;;;;;;27.92;14.45;;;;;;;4.54;100.00;102417.00;5043729;28;20045;-74
2024/01/30 03:27:42;;;;;;;27.00;14.25;;;;;;;4.54;100.00;102410.88;5029136;28;20044;-74
2024/01/30 03:30:27;;;;;;;22.30;13.57;;;;;;;4.56;100.00;102396.00;5029554;28;20040;-74
2024/01/30 03:33:15;;;;;;;27.65;13.88;;;;;;;4.59;100.00;102385.53;5046609;28;20041;-75
2024/01/30 03:36:05;;;;;;;26.58;15.40;;;;;;;4.61;100.00;102382.06;5047646;28;20060;-75
2024/01/30 03:38:50;;;;;;;27.63;14.45;;;;;;;4.64;100.00;102377.69;5045266;28;20147;-75
2024/01/30 03:41:36;;;;;;;27.70;13.68;;;;;;;4.65;100.00;102385.56;5031753;28;20033;-74
2024/01/30 03:44:22;;;;;;;26.98;14.38;;;;;;;4.68;100.00;102385.56;5042639;28;20091;-74
2024/01/30 03:47:08;;;;;;;26.67;14.23;;;;;;;4.69;100.00;102382.06;5045808;28;20650;-74
2024/01/30 03:49:53;;;;;;;29.30;14.60;;;;;;;4.68;100.00;102377.69;5045532;28;20033;-74
2024/01/30 03:52:39;;;;;;;30.60;15.13;;;;;;;4.69;100.00;102384.69;5036405;28;20067;-74
2024/01/30 03:55:27;;;;;;;29.60;14.82;;;;;;;4.71;100.00;102393.47;5048109;28;20542;-74
2024/01/30 03:58:13;;;;;;;24.63;14.05;;;;;;;4.72;100.00;102392.59;5047102;28;20078;-74
2024/01/30 04:00:59;;;;;;;24.85;13.90;;;;;;;4.74;100.00;102388.22;5034660;28;20165;-74
2024/01/30 04:03:45;;;;;;;25.65;14.57;;;;;;;4.76;100.00;102381.22;5044722;28;20039;-74
2024/01/30 04:06:30;;;;;;;27.75;14.45;;;;;;;4.79;100.00;102371.63;5045941;28;20028;-75
2024/01/30 04:09:16;;;;;;;25.23;13.60;;;;;;;4.81;100.00;102367.25;5038384;28;20109;-74
2024/01/30 04:12:02;;;;;;;23.85;13.02;;;;;;;4.82;100.00;102364.66;5027911;28;20032;-74
2024/01/30 04:14:48;;;;;;;25.70;13.95;;;;;;;4.82;100.00;102356.78;5043528;28;20056;-75
2024/01/30 04:17:34;;;;;;;24.65;13.52;;;;;;;4.86;100.00;102357.66;5047185;28;20124;-74
2024/01/30 04:20:20;;;;;;;23.27;13.35;;;;;;;4.87;100.00;102347.16;5046536;28;21326;-74
2024/01/30 04:23:08;;;;;;;31.65;15.13;;;;;;;4.90;100.00;102351.53;5032032;28;20025;-74
2024/01/30 04:25:54;;;;;;;25.27;14.15;;;;;;;4.90;100.00;102348.91;5044304;28;20041;-74
2024/01/30 04:28:44;;;;;;;26.05;13.90;;;;;;;4.89;100.00;102347.16;5044482;28;20044;-75
2024/01/30 04:31:30;;;;;;;24.33;14.15;;;;;;;4.89;100.00;102352.41;5029172;28;20584;-74
2024/01/30 04:34:15;;;;;;;25.70;13.25;;;;;;;4.88;100.00;102348.03;5031214;28;20522;-74
2024/01/30 04:37:01;;;;;;;27.33;14.07;;;;;;;4.87;100.00;102339.28;5047589;28;20458;-74
2024/01/30 04:39:47;;;;;;;23.98;13.48;;;;;;;4.87;100.00;102356.78;5019394;28;20120;-76
2024/01/30 04:42:33;;;;;;;22.13;13.02;;;;;;;4.88;100.00;102350.66;5048167;28;20325;-75
2024/01/30 04:45:18;;;;;;;20.60;12.38;;;;;;;4.90;100.00;102346.28;5044709;28;20032;-75
2024/01/30 04:48:05;;;;;;;23.67;13.05;;;;;;;4.90;100.00;102338.41;5031356;28;20065;-75
2024/01/30 04:50:50;;;;;;;24.17;13.25;;;;;;;4.91;100.00;102340.19;5032950;28;20064;-75
2024/01/30 04:53:36;;;;;;;22.75;12.63;;;;;;;4.93;100.00;102342.78;5045369;28;20045;-76
2024/01/30 04:56:22;;;;;;;21.58;13.20;;;;;;;4.95;100.00;102343.69;5030625;28;20036;-75
2024/01/30 04:59:08;;;;;;;21.90;11.57;;;;;;;4.98;100.00;102343.69;5031455;28;20044;-75
2024/01/30 05:01:54;;;;;;;20.38;12.55;;;;;;;5.00;100.00;102350.69;5031893;28;20075;-75
2024/01/30 05:04:41;;;;;;;21.08;11.88;;;;;;;5.03;100.00;102349.81;5017449;28;20032;-76
2024/01/30 05:07:26;;;;;;;22.67;12.40;;;;;;;5.01;100.00;102341.94;5013884;28;20045;-75
2024/01/30 05:10:12;;;;;;;23.45;12.13;;;;;;;5.01;100.00;102347.19;5033496;28;20037;-76
2024/01/30 05:12:58;;;;;;;25.13;13.05;;;;;;;5.01;100.00;102346.31;5028786;28;20708;-75
2024/01/30 05:15:44;;;;;;;21.58;12.20;;;;;;;5.01;100.00;102347.19;5043557;28;20040;-76
2024/01/30 05:18:29;;;;;;;22.05;11.57;;;;;;;5.00;100.00;102342.81;5046034;28;20520;-75
2024/01/30 05:21:15;;;;;;;21.77;12.05;;;;;;;5.01;100.00;102336.69;5046454;28;20126;-75
2024/01/30 05:24:01;;;;;;;26.70;11.88;;;;;;;5.02;100.00;102346.31;5011908;28;20657;-75
2024/01/30 05:26:48;;;;;;;22.23;12.10;;;;;;;5.02;100.00;102338.44;5041345;28;20514;-75
2024/01/30 05:29:33;;;;;;;20.63;12.32;;;;;;;5.02;100.00;102330.56;5019982;28;20055;-75
2024/01/30 05:32:19;;;;;;;20.35;12.00;;;;;;;5.03;100.00;102341.94;5034484;28;20048;-75
2024/01/30 05:35:05;;;;;;;19.77;11.43;;;;;;;5.03;100.00;102334.06;5035416;28;20166;-76
2024/01/30 05:37:51;;;;;;;22.00;11.80;;;;;;;5.02;100.00;102330.56;5048947;28;20044;-75
2024/01/30 05:40:36;;;;;;;22.25;12.07;;;;;;;5.02;100.00;102327.94;5042070;28;20033;-76
2024/01/30 05:43:22;;;;;;;18.40;11.13;;;;;;;5.00;100.00;102324.44;5053489;28;20548;-76
2024/01/30 05:46:08;;;;;;;18.90;11.07;;;;;;;5.03;100.00;102318.31;5049350;28;20608;-76
2024/01/30 05:48:56;;;;;;;19.20;11.30;;;;;;;5.05;100.00;102319.19;5026382;28;20036;-76
2024/01/30 05:51:42;;;;;;;19.67;11.15;;;;;;;5.07;100.00;102325.31;5038039;28;20063;-76
2024/01/30 05:54:28;;;;;;;22.42;11.98;;;;;;;5.08;100.00;102315.69;5037077;28;20083;-76
2024/01/30 05:57:14;;;;;;;21.10;11.40;;;;;;;5.10;100.00;102324.44;5051757;28;20029;-76
2024/01/30 05:59:59;;;;;;;21.83;10.85;;;;;;;5.12;100.00;102314.84;5034640;28;20045;-76
2024/01/30 06:02:45;;;;;;;23.77;11.38;;;;;;;5.11;100.00;102313.94;5031647;28;20769;-76
2024/01/30 06:05:31;;;;;;;20.20;11.52;;;;;;;5.13;100.00;102316.59;5032165;28;20598;-75
2024/01/30 06:08:17;;;;;;;20.35;11.73;;;;;;;5.11;100.00;102321.81;5043862;28;20492;-76
2024/01/30 06:11:03;;;;;;;21.55;11.65;;;;;;;5.13;100.00;102321.84;5047566;28;20036;-76
2024/01/30 06:13:49;;;;;;;23.38;11.80;;;;;;;5.14;100.00;102318.34;5030775;28;20053;-76
2024/01/30 06:16:35;;;;;;;21.33;11.32;;;;;;;5.14;100.00;102315.72;5033348;28;20024;-76
2024/01/30 06:19:20;;;;;;;19.38;11.45;;;;;;;5.15;100.00;102314.81;5024309;28;20045;-76
2024/01/30 06:22:06;;;;;;;21.35;12.05;;;;;;;5.17;100.00;102326.19;5021472;28;20063;-76
2024/01/30 06:24:52;;;;;;;20.30;11.05;;;;;;;5.16;100.00;102320.09;5047390;28;20124;-76
2024/01/30 06:27:37;;;;;;;21.38;11.13;;;;;;;5.18;100.00;102319.22;5047958;28;20041;-76
2024/01/30 06:30:23;;;;;;;18.15;11.10;;;;;;;5.20;100.00;102318.34;5018712;28;20040;-76
2024/01/30 06:33:12;;;;;;;22.92;11.75;;;;;;;5.21;100.00;102312.22;5035019;28;20037;-75
2024/01/30 06:35:58;;;;;;;20.75;11.15;;;;;;;5.24;100.00;102312.19;5051269;28;22112;-76
2024/01/30 06:38:43;;;;;;;20.08;11.10;;;;;;;5.25;100.00;102298.22;5045141;28;22405;-75
2024/01/30 06:41:30;;;;;;;21.60;11.43;;;;;;;5.28;100.00;102300.81;5047434;28;20104;-76
2024/01/30 06:44:15;;;;;;;21.08;11.77;;;;;;;5.30;100.00;102301.69;5047155;28;20167;-76
2024/01/30 06:47:01;;;;;;;21.77;12.02;;;;;;;5.32;100.00;102304.31;5049803;28;20988;-76
2024/01/30 06:49:47;;;;;;;21.40;11.18;;;;;;;5.34;100.00;102296.47;5033406;28;20029;-76
2024/01/30 06:52:32;;;;;;;20.15;11.32;;;;;;;5.36;100.00;102302.56;5035709;28;20552;-76
2024/01/30 06:55:18;;;;;;;20.45;11.55;;;;;;;5.37;100.00;102306.94;5033209;28;20048;-76
2024/01/30 06:58:04;;;;;;;21.48;11.55;;;;;;;5.40;100.00;102306.97;5007766;28;20075;-76
2024/01/30 07:00:49;;;;;;;21.23;11.75;;;;;;;5.42;100.00;102310.47;5045568;28;20056;-76
2024/01/30 07:03:35;;;;;;;21.10;11.40;;;;;;;5.45;100.00;102307.81;5048694;28;20593;-76
2024/01/30 07:06:22;;;;;;;20.52;11.32;;;;;;;5.47;100.00;102297.31;5045417;28;20040;-76
2024/01/30 07:09:10;;;;;;;19.60;11.15;;;;;;;5.48;100.00;102305.19;5032576;28;20060;-76
2024/01/30 07:11:58;;;;;;;19.15;10.88;;;;;;;5.50;100.00;102308.69;5041769;28;20357;-76
2024/01/30 07:14:44;;;;;;;19.13;11.05;;;;;;;5.52;100.00;102316.59;5026205;28;20398;-76
2024/01/30 07:17:29;;;;;;;20.17;11.32;;;;;;;5.53;100.00;102306.09;5047211;28;20055;-76
2024/01/30 07:20:20;;;;;;;21.90;11.93;;;;;;;5.55;100.00;102322.72;5031714;28;20033;-76
2024/01/30 07:23:05;;;;;;;21.63;11.07;;;;;;;5.57;100.00;102331.47;5047344;28;20760;-75
2024/01/30 07:25:51;;;;;;;22.17;10.63;;;;;;;5.57;100.00;102320.94;5049505;28;20559;-76
2024/01/30 07:28:38;;;;;;;21.02;11.63;;;;;;;5.58;100.00;102320.06;5047130;28;20104;-76
2024/01/30 07:31:23;;;;;;;17.60;10.57;;;;;;;5.61;100.00;102316.56;5044363;28;20036;-76
2024/01/30 07:34:10;;;;;;;20.58;10.43;;;;;;;5.61;100.00;102310.44;5035265;28;20656;-76
2024/01/30 07:36:56;;;;;;;19.25;10.80;;;;;;;5.62;100.00;102317.44;5036283;28;20055;-76
2024/01/30 07:39:42;;;;;;;22.17;10.75;;;;;;;5.64;100.00;102320.94;5032794;28;20116;-76
2024/01/30 07:42:28;;;;;;;20.15;10.48;;;;;;;5.65;100.00;102314.81;5019215;28;20044;-76
2024/01/30 07:45:16;;;;;;;15.82;9.82;;;;;;;5.67;100.00;102315.69;5048084;28;20033;-76
2024/01/30 07:48:02;;;;;;;19.10;10.52;;;;;;;5.68;100.00;102317.44;5046250;28;20036;-76
2024/01/30 07:50:48;;;;;;;16.63;9.70;;;;;;;5.67;100.00;102315.69;5047119;28;20097;-76
2024/01/30 07:53:34;;;;;;;17.63;10.50;;;;;;;5.69;100.00;102325.34;5047505;28;20118;-76
2024/01/30 07:56:20;;;;;;;19.95;10.48;;;;;;;5.72;100.00;102329.69;5033726;28;20033;-76
2024/01/30 07:59:05;;;;;;;18.05;10.10;;;;;;;5.72;100.00;102334.94;5034793;28;20036;-76
2024/01/30 08:01:51;;;;;;;19.92;11.18;;;;;;;5.73;100.00;102343.72;5046360;28;20457;-76
2024/01/30 08:04:37;;;;;;;18.27;10.07;;;;;;;5.73;100.00;102341.09;5048552;28;20051;-76
2024/01/30 08:07:23;;;;;;;18.88;10.52;;;;;;;5.76;100.00;102346.31;5047065;28;20040;-76
2024/01/30 08:10:11;;;;;;;20.30;11.30;;;;;;;5.79;100.00;102357.75;5029094;28;20040;-76
2024/01/30 08:12:56;;;;;;;20.52;11.55;;;;;;;5.82;100.00;102367.34;5047157;28;20048;-76
2024/01/30 08:15:42;;;;;;;22.13;10.70;;;;;;;5.87;100.00;102359.50;5043827;28;20037;-76
2024/01/30 08:18:28;;;;;;;22.83;11.40;;;;;;;5.95;100.00;102361.19;5032613;28;20121;-76
2024/01/30 08:21:13;;;;;;;25.50;10.73;;;;;;;6.03;100.00;102358.59;5028897;28;20052;-76
2024/01/30 08:23:59;;;;;;;21.05;10.68;;;;;;;6.17;100.00;102355.94;5046849;28;20036;-76
2024/01/30 08:26:45;;;;;;;20.45;10.35;;;;;;;6.32;100.00;102362.91;5047313;28;20037;-76
2024/01/30 08:29:31;;;;;;;21.75;10.75;;;;;;;6.45;100.00;102368.13;5032575;28;20051;-76
2024/01/30 08:32:16;;;;;;;20.08;10.70;;;;;;;6.54;100.00;102361.97;5049464;28;20044;-76
2024/01/30 08:35:06;;;;;;;19.58;10.80;;;;;;;6.61;100.00;102358.41;5012408;28;20036;-76
2024/01/30 08:37:52;;;;;;;21.48;11.45;;;;;;;6.68;100.00;102359.25;5046078;28;20312;-77
2024/01/30 08:40:37;;;;;;;19.88;10.35;;;;;;;6.73;100.00;102363.63;5044233;28;20052;-78
2024/01/30 08:43:23;;;;;;;20.13;11.10;;;;;;;6.81;100.00;102350.41;5034686;28;20032;-78
2024/01/30 08:46:11;;;;;;;18.33;10.48;;;;;;;6.85;100.00;102362.69;5044897;28;20044;-78
2024/01/30 08:48:57;;;;;;;16.13;9.85;;;;;;;6.93;100.00;102357.38;5048292;28;20043;-78
2024/01/30 08:51:43;;;;;;;17.52;10.68;;;;;;;6.98;100.00;102367.88;5039887;28;20055;-77
2024/01/30 08:54:28;;;;;;;17.92;10.82;;;;;;;7.02;100.00;102369.59;5017549;28;20051;-78
2024/01/30 08:57:14;;;;;;;21.25;10.63;;;;;;;7.05;100.00;102370.47;5017472;28;20064;-77
2024/01/30 09:00:00;;;;;;;16.60;9.98;;;;;;;7.09;100.00;102368.69;5029119;28;20068;-76
2024/01/30 09:02:46;;;;;;;17.02;9.45;;;;;;;7.16;100.00;102367.78;5043831;28;20037;-76
2024/01/30 09:05:31;;;;;;;17.02;9.82;;;;;;;7.22;100.00;102365.97;5043621;28;20491;-76
2024/01/30 09:08:18;;;;;;;18.55;9.25;;;;;;;7.26;100.00;102357.16;5019118;28;20048;-76
2024/01/30 09:11:14;;;;;;;15.70;9.77;;;;;;;7.30;100.00;102356.25;5023246;28;20041;-75
2024/01/30 09:13:59;;;;;;;18.30;10.13;;;;;;;7.36;100.00;102357.97;5044196;28;21608;-76
2024/01/30 09:16:45;;;;;;;21.10;9.77;;;;;;;7.39;100.00;102358.81;5043238;28;20101;-76
2024/01/30 09:19:31;;;;;;;18.52;10.10;;;;;;;7.43;100.00;102346.50;5042252;28;20060;-76
2024/01/30 09:22:17;;;;;;;19.25;10.10;;;;;;;7.49;100.00;102351.72;5020032;28;20104;-76
2024/01/30 09:25:03;;;;;;;16.65;10.07;;;;;;;7.55;100.00;102350.78;5044355;28;20044;-76
2024/01/30 09:27:49;;;;;;;19.05;8.95;;;;;;;7.59;100.00;102356.00;5047136;28;20045;-75
2024/01/30 09:30:35;;;;;;;17.13;9.63;;;;;;;7.65;100.00;102376.19;5031700;28;20152;-77
2024/01/30 09:33:20;;;;;;;14.30;8.98;;;;;;;7.67;100.00;102374.41;5031630;28;21467;-76
2024/01/30 09:36:07;;;;;;;16.70;9.35;;;;;;;7.70;100.00;102377.03;5045251;28;21828;-76
2024/01/30 09:38:53;;;;;;;19.67;10.05;;;;;;;7.68;100.00;102370.88;5031472;28;20255;-75
2024/01/30 09:41:48;;;;;;;21.58;10.02;;;;;;;7.65;100.00;102375.28;5047169;28;20041;-76
2024/01/30 09:44:36;;;;;;;15.55;8.57;;;;;;;7.64;100.00;102370.91;5045674;28;20032;-75
2024/01/30 09:47:22;;;;;;;18.85;9.45;;;;;;;7.63;100.00;102379.72;5034016;28;20372;-76
2024/01/30 09:50:09;;;;;;;18.13;9.18;;;;;;;7.61;100.00;102371.81;5044919;28;20037;-75
2024/01/30 09:52:55;;;;;;;14.60;8.52;;;;;;;7.60;100.00;102381.50;5020869;28;20056;-76
2024/01/30 09:55:42;;;;;;;15.27;9.38;;;;;;;7.59;100.00;102381.50;5032705;28;20056;-76
2024/01/30 09:58:28;;;;;;;15.25;9.20;;;;;;;7.57;100.00;102376.25;5030746;28;20432;-76
2024/01/30 10:01:18;;;;;;;16.73;8.95;;;;;;;7.57;100.00;102378.03;5046165;28;20247;-75
2024/01/30 10:04:07;;;;;;;11.95;8.10;;;;;;;7.56;100.00;102389.41;5041946;28;20120;-77
2024/01/30 10:06:53;;;;;;;15.55;8.85;;;;;;;7.56;100.00;102386.78;5043646;28;20064;-77
2024/01/30 10:09:38;;;;;;;18.25;9.23;;;;;;;7.55;100.00;102385.94;5030483;28;20072;-76
2024/01/30 10:12:26;;;;;;;16.23;9.20;;;;;;;7.58;100.00;102390.31;5049005;28;20037;-75
2024/01/30 10:15:13;;;;;;;16.88;9.10;;;;;;;7.58;100.00;102403.47;5042012;28;20040;-76
2024/01/30 10:17:59;;;;;;;18.30;8.20;;;;;;;7.58;100.00;102400.84;5047679;28;20321;-75
2024/01/30 10:20:45;;;;;;;16.38;8.75;;;;;;;7.57;100.00;102404.38;5032900;28;20246;-76
2024/01/30 10:23:31;;;;;;;17.25;8.88;;;;;;;7.61;100.00;102411.34;5030853;28;20064;-75
2024/01/30 10:26:17;;;;;;;15.35;7.95;;;;;;;7.67;100.00;102418.34;5035454;28;20041;-75
2024/01/30 10:29:03;;;;;;;12.90;7.43;;;;;;;7.74;100.00;102423.53;5046582;28;20051;-77
2024/01/30 10:32:02;;;;;;;12.27;7.10;;;;;;;7.82;100.00;102409.44;5027812;28;20160;-75
2024/01/30 10:34:48;;;;;;;13.63;7.13;;;;;;;7.85;100.00;102409.41;5046729;28;20194;-75
2024/01/30 10:37:35;;;;;;;9.68;5.63;;;;;;;7.85;100.00;102420.81;5048127;28;20044;-74
2024/01/30 10:40:21;;;;;;;11.48;6.10;;;;;;;7.86;100.00;102419.94;5034633;28;20086;-73
2024/01/30 10:43:11;;;;;;;12.02;6.18;;;;;;;7.85;100.00;102427.88;5032665;28;20036;-74
2024/01/30 10:45:57;;;;;;;8.10;4.05;;;;;;;7.84;100.00;102429.63;5047597;28;20083;-73
2024/01/30 10:48:48;;;;;;;9.10;3.38;;;;;;;7.82;100.00;102420.84;5035316;28;20098;-73
2024/01/30 10:51:35;;;;;;;8.88;2.90;;;;;;;7.78;100.00;102434.09;5045343;28;20057;-74
2024/01/30 10:54:22;;;;;;;5.28;2.65;;;;;;;7.73;100.00;102427.06;5038260;28;20896;-73
2024/01/30 10:57:09;;;;;;;5.38;2.40;;;;;;;7.70;100.00;102436.78;5033752;28;20089;-74
2024/01/30 10:59:59;;;;;;;7.13;2.88;;;;;;;7.64;100.00;102432.44;5045561;28;20041;-74
2024/01/30 11:02:46;;;;;;;5.88;2.10;;;;;;;7.62;100.00;102434.19;5021733;28;20127;-74
2024/01/30 11:05:33;;;;;;;6.75;2.03;;;;;;;7.55;100.00;102424.56;5032691;28;20048;-74
2024/01/30 11:08:27;;;;;;;5.65;2.20;;;;;;;7.54;100.00;102428.09;5037843;28;20044;-74
2024/01/30 11:11:13;;;;;;;6.15;2.28;;;;;;;7.51;100.00;102425.50;5044769;28;20123;-74
2024/01/30 11:14:01;;;;;;;6.38;2.22;;;;;;;7.46;100.00;102429.03;5023425;28;20033;-74
2024/01/30 11:16:49;;;;;;;7.28;2.33;;;;;;;7.45;100.00;102436.94;5047736;28;20115;-75
2024/01/30 11:19:35;;;;;;;5.97;2.92;;;;;;;7.43;100.00;102418.53;5047553;28;20040;-75
2024/01/30 11:22:20;;;;;;;6.78;2.65;;;;;;;7.43;100.00;102433.44;5050566;28;20132;-73
2024/01/30 11:25:07;;;;;;;11.32;3.00;;;;;;;7.44;100.00;102430.81;5046683;28;20048;-74
2024/01/30 11:27:56;;;;;;;13.27;3.20;;;;;;;7.44;100.00;102428.19;5034555;28;20167;-76
2024/01/30 11:30:42;;;;;;;7.35;2.17;;;;;;;7.44;100.00;102429.94;5009241;28;20124;-73
2024/01/30 11:33:32;;;;;;;4.53;2.45;;;;;;;7.40;100.00;102431.72;5049091;28;20037;-74
2024/01/30 11:36:22;;;;;;;9.30;2.35;;;;;;;7.38;100.00;102425.59;5034519;28;20037;-74
2024/01/30 11:39:08;;;;;;;3.55;1.88;;;;;;;7.37;100.00;102428.22;5026903;28;20706;-74
2024/01/30 11:41:54;;;;;;;3.67;1.70;;;;;;;7.36;100.00;102427.38;5046821;28;20063;-75
2024/01/30 11:44:40;;;;;;;2.00;1.73;;;;;;;7.36;100.00;102427.38;5048314;28;20064;-74
2024/01/30 11:47:26;;;;;;;5.88;1.55;;;;;;;7.34;100.00;102421.22;5047666;28;20462;-74
2024/01/30 11:50:12;;;;;;;3.53;1.40;;;;;;;7.33;100.00;102420.34;5050813;28;20041;-75
2024/01/30 11:53:01;;;;;;;2.72;1.23;;;;;;;7.34;100.00;102418.56;5047924;28;20053;-76
2024/01/30 11:55:50;;;;;;;6.38;1.55;;;;;;;7.34;100.00;102413.31;5048793;28;20124;-76
2024/01/30 11:58:36;;;;;;;4.85;1.20;;;;;;;7.37;100.00;102418.56;5038916;28;20716;-75
2024/01/30 12:01:24;;;;;;;7.40;1.50;;;;;;;7.37;100.00;102420.31;5061525;28;20067;-75
2024/01/30 12:04:10;;;;;;;3.92;1.70;;;;;;;7.37;100.00;102413.31;5043538;28;20048;-73
2024/01/30 12:06:59;;;;;;;2.75;1.92;;;;;;;7.39;100.00;102419.44;5031582;28;20530;-74
2024/01/30 12:09:54;;;;;;;3.80;1.90;;;;;;;7.39;100.00;102415.91;5036049;28;20059;-76
2024/01/30 12:12:42;;;;;;;2.88;1.65;;;;;;;7.38;100.00;102422.06;5041225;28;20112;-74
2024/01/30 12:15:28;;;;;;;6.13;1.50;;;;;;;7.40;100.00;102415.91;5053315;28;20166;-76
2024/01/30 12:18:18;;;;;;;3.10;1.15;;;;;;;7.39;100.00;102422.06;5043216;28;20284;-76
2024/01/30 12:21:04;;;;;;;3.17;1.30;;;;;;;7.41;100.00;102420.28;5042688;28;20036;-74
2024/01/30 12:23:51;;;;;;;4.95;1.30;;;;;;;7.45;100.00;102419.38;5046435;28;20039;-75
2024/01/30 12:26:37;;;;;;;3.60;1.55;;;;;;;7.49;100.00;102420.22;5056322;28;20013;-75
2024/01/30 12:29:23;;;;;;;4.63;1.60;;;;;;;7.51;100.00;102425.50;5046135;28;20044;-75
2024/01/30 12:32:09;;;;;;;6.35;1.55;;;;;;;7.56;100.00;102424.56;5061830;28;20028;-76
2024/01/30 12:34:59;;;;;;;2.83;1.38;;;;;;;7.57;100.00;102426.31;5046577;28;20037;-76
2024/01/30 12:37:48;;;;;;;4.80;1.50;;;;;;;7.58;100.00;102429.84;5056781;28;20097;-75